Time;durP1;ratioP1;P1;durP2;ratioP2;P2;SDS_P1;SDS_P2;PMS_P1;PMS_P2;Temp;Humidity;BMP_temperature;BMP_pressure;BME280_temperature;BME280_humidity;BME280_pressure;Samples;Min_cycle;Max_cycle;Signal;HPM_P1;HPM_P2
2020/12/28 00:04:53;;;;;;;2.30;1.58;;;18.70;44.20;;;;;;5057980;28;20047;-73
2020/12/28 00:07:18;;;;;;;3.25;1.70;;;18.70;44.20;;;;;;5063895;28;20107;-73
2020/12/28 00:09:44;;;;;;;4.20;2.33;;;18.70;44.20;;;;;;5065620;28;20411;-72
2020/12/28 00:12:09;;;;;;;4.68;1.77;;;18.70;44.20;;;;;;5054637;28;20070;-72
2020/12/28 00:14:35;;;;;;;2.15;1.60;;;18.70;44.20;;;;;;5064495;28;20060;-72
2020/12/28 00:17:01;;;;;;;2.20;1.70;;;18.70;44.10;;;;;;5035032;28;20031;-73
2020/12/28 00:19:26;;;;;;;2.42;1.63;;;18.70;44.20;;;;;;5075583;28;20039;-72
2020/12/28 00:21:52;;;;;;;3.00;1.52;;;18.70;44.20;;;;;;5061577;28;20504;-72
2020/12/28 00:24:18;;;;;;;2.45;1.60;;;18.70;44.20;;;;;;5048330;28;20396;-72
2020/12/28 00:26:46;;;;;;;2.05;1.80;;;18.70;44.20;;;;;;5032566;28;20032;-72
2020/12/28 00:29:15;;;;;;;2.47;1.70;;;18.70;44.20;;;;;;5071783;28;20025;-72
2020/12/28 00:31:47;;;;;;;1.60;1.50;;;18.60;44.10;;;;;;5033844;28;20020;-72
2020/12/28 00:34:13;;;;;;;2.15;1.50;;;18.60;44.10;;;;;;5066857;28;20029;-72
2020/12/28 00:36:38;;;;;;;2.13;1.45;;;18.60;44.10;;;;;;5052316;28;20031;-72
2020/12/28 00:39:04;;;;;;;2.28;1.20;;;18.60;44.20;;;;;;5067991;28;20036;-72
2020/12/28 00:41:30;;;;;;;2.08;1.48;;;18.60;44.20;;;;;;5032831;28;20029;-69
2020/12/28 00:44:02;;;;;;;2.17;1.10;;;18.60;44.20;;;;;;5061451;28;20029;-69
2020/12/28 00:46:27;;;;;;;4.38;1.48;;;18.60;44.20;;;;;;5055095;28;20051;-68
2020/12/28 00:48:53;;;;;;;1.50;1.30;;;18.60;44.20;;;;;;5054922;28;20396;-72
2020/12/28 00:51:18;;;;;;;1.55;1.45;;;18.50;44.20;;;;;;5035887;28;20064;-72
2020/12/28 00:53:44;;;;;;;1.83;1.33;;;18.50;44.20;;;;;;5055171;28;20029;-69
2020/12/28 00:56:12;;;;;;;2.15;1.27;;;18.50;44.20;;;;;;5040565;28;20064;-69
2020/12/28 00:58:37;;;;;;;2.60;1.27;;;18.50;44.20;;;;;;5027785;28;20116;-68
2020/12/28 01:01:03;;;;;;;1.88;1.50;;;18.50;44.30;;;;;;5049917;28;21492;-69
2020/12/28 01:03:29;;;;;;;1.67;1.08;;;18.50;44.20;;;;;;5051326;28;20032;-69
2020/12/28 01:05:54;;;;;;;1.00;0.88;;;18.50;44.20;;;;;;5064248;28;20025;-68
2020/12/28 01:08:20;;;;;;;1.85;1.23;;;18.50;44.20;;;;;;5061479;28;20060;-69
2020/12/28 01:10:45;;;;;;;2.10;1.20;;;18.40;44.20;;;;;;5064576;28;20024;-69
2020/12/28 01:13:11;;;;;;;2.17;1.48;;;18.40;44.20;;;;;;5064700;28;20024;-71
2020/12/28 01:15:38;;;;;;;0.40;0.28;;;18.40;44.20;;;;;;5048339;28;20021;-72
2020/12/28 01:18:03;;;;;;;1.45;0.77;;;18.40;44.30;;;;;;5036765;28;20075;-72
2020/12/28 01:20:29;;;;;;;2.08;1.00;;;18.40;44.10;;;;;;5064618;28;20442;-71
2020/12/28 01:22:54;;;;;;;3.50;0.75;;;18.40;44.10;;;;;;5059362;28;20064;-72
2020/12/28 01:25:20;;;;;;;4.40;0.80;;;18.40;44.80;;;;;;5067568;28;20039;-72
2020/12/28 01:27:45;;;;;;;0.77;0.77;;;18.40;44.10;;;;;;5049222;28;20108;-72
2020/12/28 01:30:11;;;;;;;1.55;0.57;;;18.40;44.20;;;;;;5048123;28;20407;-71
2020/12/28 01:32:37;;;;;;;0.95;0.65;;;18.40;44.10;;;;;;5047718;28;20020;-71
2020/12/28 01:35:02;;;;;;;1.17;0.82;;;18.40;44.60;;;;;;5054576;28;20089;-71
2020/12/28 01:37:28;;;;;;;0.55;0.25;;;18.40;44.00;;;;;;5067098;28;20043;-72
2020/12/28 01:39:53;;;;;;;0.40;0.38;;;18.40;44.00;;;;;;5059094;28;20098;-71
2020/12/28 01:42:19;;;;;;;2.25;0.93;;;18.40;43.90;;;;;;5046737;28;20066;-71
2020/12/28 01:44:44;;;;;;;1.80;0.60;;;18.40;44.00;;;;;;5053977;28;20036;-71
2020/12/28 01:47:10;;;;;;;0.65;0.60;;;18.40;44.00;;;;;;5053888;28;20031;-73
2020/12/28 01:49:35;;;;;;;2.78;0.70;;;18.40;44.10;;;;;;5026659;28;20056;-72
2020/12/28 01:52:01;;;;;;;2.78;0.57;;;18.40;44.10;;;;;;5030034;28;20087;-71
2020/12/28 01:54:27;;;;;;;0.00;0.00;;;18.40;44.10;;;;;;5035173;28;20041;-73
2020/12/28 01:56:53;;;;;;;2.42;0.52;;;18.40;44.00;;;;;;5021470;28;20442;-71
2020/12/28 01:59:18;;;;;;;2.97;0.70;;;18.30;43.90;;;;;;5054870;28;20025;-71
2020/12/28 02:01:44;;;;;;;1.60;0.70;;;18.30;43.90;;;;;;5059325;28;20087;-72
2020/12/28 02:04:13;;;;;;;3.17;0.80;;;18.30;44.00;;;;;;5016969;28;20029;-72
2020/12/28 02:06:39;;;;;;;0.60;0.40;;;18.30;44.00;;;;;;5045918;28;20104;-69
2020/12/28 02:09:04;;;;;;;0.85;0.30;;;18.30;44.10;;;;;;5054374;28;20527;-72
2020/12/28 02:11:30;;;;;;;2.97;0.57;;;18.30;44.10;;;;;;5047120;28;20512;-71
2020/12/28 02:13:56;;;;;;;1.23;0.52;;;18.30;44.10;;;;;;5040289;28;20017;-72
2020/12/28 02:16:29;;;;;;;2.60;0.80;;;18.20;44.10;;;;;;5089676;28;20352;-72
2020/12/28 02:18:54;;;;;;;0.77;0.50;;;18.30;44.10;;;;;;5088632;28;20090;-72
2020/12/28 02:21:20;;;;;;;1.48;0.60;;;18.30;44.20;;;;;;5078517;28;20108;-72
2020/12/28 02:23:45;;;;;;;1.30;0.60;;;18.20;44.00;;;;;;5088083;28;20508;-71
2020/12/28 02:26:11;;;;;;;1.65;0.50;;;18.20;44.10;;;;;;5079500;28;20028;-72
2020/12/28 02:28:37;;;;;;;2.15;0.80;;;18.20;44.10;;;;;;5075092;28;20033;-72
2020/12/28 02:31:03;;;;;;;1.23;0.50;;;18.20;44.20;;;;;;5080625;28;20574;-72
2020/12/28 02:33:28;;;;;;;0.70;0.50;;;18.20;44.20;;;;;;5087140;28;20107;-72
2020/12/28 02:35:54;;;;;;;0.82;0.45;;;18.20;44.10;;;;;;5087233;28;20032;-72
2020/12/28 02:38:38;;;;;;;1.85;0.55;;;18.20;44.20;;;;;;5077582;28;20032;-72
2020/12/28 02:41:04;;;;;;;0.52;0.52;;;18.20;44.80;;;;;;5083879;28;20032;-72
2020/12/28 02:43:30;;;;;;;0.88;0.52;;;18.10;44.80;;;;;;5088471;28;20031;-72
2020/12/28 02:45:56;;;;;;;1.27;0.38;;;18.20;44.20;;;;;;5089229;28;20040;-73
2020/12/28 02:48:21;;;;;;;2.38;0.60;;;18.10;44.20;;;;;;5086153;28;20047;-73
2020/12/28 02:50:47;;;;;;;2.95;0.80;;;18.10;44.20;;;;;;5089187;28;20036;-73
2020/12/28 02:53:13;;;;;;;3.70;1.10;;;18.10;44.20;;;;;;5089378;28;20020;-73
2020/12/28 02:55:38;;;;;;;1.58;0.65;;;18.20;44.20;;;;;;5087041;28;20036;-73
2020/12/28 02:58:04;;;;;;;2.15;0.45;;;18.20;44.10;;;;;;5089486;28;20028;-73
2020/12/28 03:00:29;;;;;;;1.10;0.30;;;18.20;44.10;;;;;;5088458;28;20032;-73
2020/12/28 03:02:55;;;;;;;0.68;0.68;;;18.20;44.10;;;;;;5089380;28;20513;-73
2020/12/28 03:05:20;;;;;;;4.65;1.45;;;18.10;44.00;;;;;;5082702;28;20025;-73
2020/12/28 03:07:46;;;;;;;4.60;1.08;;;18.20;44.00;;;;;;5089232;28;20095;-74
2020/12/28 03:10:11;;;;;;;1.65;0.30;;;18.20;44.00;;;;;;5088860;28;20054;-73
2020/12/28 03:12:43;;;;;;;2.42;0.80;;;18.20;44.60;;;;;;5089075;28;20090;-73
2020/12/28 03:15:08;;;;;;;3.10;1.00;;;18.20;44.00;;;;;;5078858;28;20515;-74
2020/12/28 03:17:34;;;;;;;1.27;0.65;;;18.20;44.00;;;;;;5088995;28;20064;-74
2020/12/28 03:19:59;;;;;;;1.13;0.90;;;18.20;43.90;;;;;;5088859;28;20483;-70
2020/12/28 03:22:25;;;;;;;2.95;1.00;;;18.20;44.60;;;;;;5087913;28;20028;-69
2020/12/28 03:24:50;;;;;;;4.22;1.08;;;18.20;43.90;;;;;;5084603;28;20495;-69
2020/12/28 03:27:16;;;;;;;5.20;0.80;;;18.20;44.00;;;;;;5077379;28;20024;-69
2020/12/28 03:29:41;;;;;;;1.73;1.10;;;18.20;44.00;;;;;;5073732;28;20021;-69
2020/12/28 03:32:07;;;;;;;0.82;0.65;;;18.20;44.00;;;;;;5074558;28;20039;-70
2020/12/28 03:34:33;;;;;;;2.95;0.80;;;18.20;44.00;;;;;;5063993;28;20059;-69
2020/12/28 03:36:58;;;;;;;0.82;0.43;;;18.20;44.00;;;;;;5074714;28;20024;-69
2020/12/28 03:39:24;;;;;;;0.82;0.38;;;18.20;43.90;;;;;;5074895;28;20031;-69
2020/12/28 03:41:49;;;;;;;3.28;0.90;;;18.20;44.00;;;;;;5074734;28;20032;-69
2020/12/28 03:44:15;;;;;;;3.95;0.82;;;18.10;43.90;;;;;;5060585;28;20056;-70
2020/12/28 03:46:40;;;;;;;1.63;1.10;;;18.10;44.00;;;;;;5073066;28;20017;-70
2020/12/28 03:49:06;;;;;;;0.68;0.47;;;18.10;44.00;;;;;;5075032;28;20106;-70
2020/12/28 03:51:31;;;;;;;1.70;0.93;;;18.10;44.00;;;;;;5074483;28;20024;-70
2020/12/28 03:53:57;;;;;;;2.55;0.98;;;18.10;44.00;;;;;;5061198;28;20044;-70
2020/12/28 03:56:22;;;;;;;1.55;1.17;;;18.10;44.00;;;;;;5071250;28;20038;-69
2020/12/28 03:58:48;;;;;;;3.72;1.10;;;18.10;44.00;;;;;;5074182;28;20029;-69
2020/12/28 04:01:13;;;;;;;1.33;0.98;;;18.10;44.20;;;;;;5073523;28;20025;-70
2020/12/28 04:03:39;;;;;;;1.52;0.82;;;18.00;44.00;;;;;;5063251;28;20029;-70
2020/12/28 04:06:05;;;;;;;2.60;0.88;;;18.10;44.00;;;;;;5096288;28;20492;-70
2020/12/28 04:08:31;;;;;;;2.83;1.05;;;18.10;44.10;;;;;;5054433;28;20036;-70
2020/12/28 04:11:02;;;;;;;2.65;1.00;;;18.00;44.00;;;;;;5070496;28;20038;-70
2020/12/28 04:13:28;;;;;;;0.75;0.15;;;18.00;44.00;;;;;;5069092;28;20115;-70
2020/12/28 04:15:53;;;;;;;1.42;0.55;;;18.00;44.00;;;;;;5073741;28;20584;-69
2020/12/28 04:18:19;;;;;;;2.55;0.85;;;18.00;44.70;;;;;;5074385;28;20527;-69
2020/12/28 04:20:44;;;;;;;0.90;0.50;;;18.00;44.00;;;;;;5072133;28;20036;-70
2020/12/28 04:23:10;;;;;;;4.72;0.88;;;18.00;44.10;;;;;;5073962;28;20034;-70
2020/12/28 04:25:35;;;;;;;1.67;0.75;;;18.00;44.00;;;;;;5074064;28;20025;-70
2020/12/28 04:28:01;;;;;;;6.18;0.90;;;18.00;44.00;;;;;;5073093;28;20036;-73
2020/12/28 04:30:26;;;;;;;1.30;0.43;;;18.00;44.00;;;;;;5072868;28;20043;-73
2020/12/28 04:32:52;;;;;;;2.33;0.93;;;18.00;44.10;;;;;;5072812;28;20113;-73
2020/12/28 04:35:17;;;;;;;3.17;0.70;;;18.00;43.90;;;;;;5073228;28;20032;-73
2020/12/28 04:37:43;;;;;;;2.05;0.85;;;18.00;43.90;;;;;;5073249;28;20032;-73
2020/12/28 04:40:08;;;;;;;2.15;0.70;;;18.00;43.90;;;;;;5064930;28;20099;-73
2020/12/28 04:42:41;;;;;;;1.67;0.65;;;18.00;43.80;;;;;;5072595;28;20021;-73
2020/12/28 04:45:10;;;;;;;7.30;1.10;;;18.10;44.10;;;;;;5072352;28;20029;-73
2020/12/28 04:47:36;;;;;;;4.18;1.20;;;18.00;43.80;;;;;;5072404;28;20404;-73
2020/12/28 04:50:01;;;;;;;4.35;0.70;;;18.10;43.90;;;;;;5057790;28;20036;-72
2020/12/28 04:52:27;;;;;;;1.05;0.52;;;18.00;43.80;;;;;;5071879;28;20051;-73
2020/12/28 04:54:52;;;;;;;2.25;0.38;;;18.00;43.80;;;;;;5072755;28;20036;-73
2020/12/28 04:57:18;;;;;;;0.65;0.38;;;18.00;43.80;;;;;;5062782;28;20103;-73
2020/12/28 04:59:43;;;;;;;4.28;0.95;;;18.00;43.90;;;;;;5054486;28;20064;-73
2020/12/28 05:02:09;;;;;;;3.22;0.40;;;18.00;43.80;;;;;;5070804;28;20074;-74
2020/12/28 05:04:35;;;;;;;0.85;0.43;;;18.00;43.80;;;;;;5071196;28;20074;-73
2020/12/28 05:07:02;;;;;;;0.82;0.47;;;18.00;43.80;;;;;;5064155;28;20029;-73
2020/12/28 05:09:28;;;;;;;1.27;0.28;;;18.00;43.70;;;;;;5057784;28;20506;-73
2020/12/28 05:12:04;;;;;;;0.82;0.40;;;18.00;43.80;;;;;;5071903;28;20024;-73
2020/12/28 05:14:29;;;;;;;1.75;0.17;;;18.10;43.80;;;;;;5071535;28;20140;-73
2020/12/28 05:17:03;;;;;;;0.20;0.20;;;18.20;43.70;;;;;;5064791;28;20107;-73
2020/12/28 05:19:29;;;;;;;1.33;0.30;;;18.30;43.60;;;;;;5052325;28;20048;-70
2020/12/28 05:21:55;;;;;;;0.40;0.22;;;18.40;43.50;;;;;;5070957;28;20021;-70
2020/12/28 05:24:21;;;;;;;0.32;0.32;;;18.40;43.30;;;;;;5070174;28;20063;-70
2020/12/28 05:26:47;;;;;;;0.43;0.20;;;18.50;43.10;;;;;;5067744;28;20096;-70
2020/12/28 05:29:14;;;;;;;3.17;0.25;;;18.60;43.00;;;;;;5066990;28;20032;-70
2020/12/28 05:31:41;;;;;;;0.57;0.30;;;18.70;42.80;;;;;;5070815;28;20081;-70
2020/12/28 05:34:19;;;;;;;0.95;0.30;;;18.80;42.70;;;;;;5071069;28;20111;-70
2020/12/28 05:36:46;;;;;;;0.75;0.20;;;18.90;42.50;;;;;;5075513;28;20050;-69
2020/12/28 05:39:14;;;;;;;0.20;0.20;;;19.00;42.30;;;;;;5053653;28;20408;-69
2020/12/28 05:41:39;;;;;;;0.73;0.35;;;19.10;42.10;;;;;;5072067;28;20016;-69
2020/12/28 05:44:09;;;;;;;0.20;0.17;;;19.20;42.00;;;;;;5071555;28;20035;-69
2020/12/28 05:46:35;;;;;;;1.00;0.20;;;19.30;41.90;;;;;;5071534;28;20020;-69
2020/12/28 05:49:00;;;;;;;0.70;0.40;;;19.40;41.70;;;;;;5071432;28;20047;-68
2020/12/28 05:51:26;;;;;;;1.52;0.22;;;19.40;41.60;;;;;;5067498;28;20025;-71
2020/12/28 05:53:51;;;;;;;0.20;0.20;;;19.50;41.60;;;;;;5070143;28;20043;-69
2020/12/28 05:56:17;;;;;;;0.32;0.20;;;19.40;41.50;;;;;;5054463;28;20094;-69
2020/12/28 05:58:43;;;;;;;0.22;0.15;;;19.50;41.60;;;;;;5064632;28;20048;-69
2020/12/28 06:01:10;;;;;;;0.10;0.10;;;19.50;41.60;;;;;;5068177;28;20048;-69
2020/12/28 06:03:35;;;;;;;0.68;0.43;;;19.50;41.50;;;;;;5069656;28;20440;-69
2020/12/28 06:06:01;;;;;;;0.10;0.10;;;19.50;41.60;;;;;;5049445;28;20063;-70
2020/12/28 06:08:26;;;;;;;1.98;0.40;;;19.50;41.60;;;;;;5064325;28;20036;-69
2020/12/28 06:10:53;;;;;;;0.90;0.32;;;19.50;41.60;;;;;;5071381;28;20025;-69
2020/12/28 06:13:24;;;;;;;0.63;0.20;;;19.50;41.50;;;;;;5070083;28;20035;-69
2020/12/28 06:16:03;;;;;;;0.38;0.20;;;19.50;41.60;;;;;;5071143;28;20451;-69
2020/12/28 06:18:57;;;;;;;0.28;0.20;;;19.50;41.60;;;;;;5062810;28;20029;-69
2020/12/28 06:21:23;;;;;;;0.22;0.20;;;19.60;41.60;;;;;;5071604;28;20013;-69
2020/12/28 06:23:49;;;;;;;0.93;0.30;;;19.60;41.50;;;;;;5052448;28;20031;-69
2020/12/28 06:26:18;;;;;;;0.43;0.20;;;19.60;41.50;;;;;;5069337;28;20094;-69
2020/12/28 06:28:44;;;;;;;0.32;0.25;;;19.60;41.60;;;;;;5068998;28;20029;-69
2020/12/28 06:31:10;;;;;;;1.35;0.40;;;19.60;41.50;;;;;;5071801;28;20031;-69
2020/12/28 06:33:35;;;;;;;0.35;0.15;;;19.70;41.50;;;;;;5069644;28;20033;-70
2020/12/28 06:36:12;;;;;;;0.52;0.25;;;19.70;41.40;;;;;;5051065;28;20036;-70
2020/12/28 06:38:37;;;;;;;0.10;0.10;;;19.70;41.50;;;;;;5052675;28;20041;-70
2020/12/28 06:41:03;;;;;;;0.35;0.15;;;19.70;41.50;;;;;;5071799;28;20025;-70
2020/12/28 06:43:37;;;;;;;1.75;0.47;;;19.70;41.50;;;;;;5068377;28;20115;-70
2020/12/28 06:46:03;;;;;;;0.85;0.25;;;19.70;41.40;;;;;;5067597;28;20052;-69
2020/12/28 06:48:28;;;;;;;1.95;0.20;;;19.70;41.40;;;;;;5067146;28;20029;-70
2020/12/28 06:50:54;;;;;;;0.20;0.20;;;19.70;41.40;;;;;;5071845;28;20024;-69
2020/12/28 06:53:26;;;;;;;0.35;0.15;;;19.70;41.40;;;;;;5069716;28;20067;-70
2020/12/28 06:55:52;;;;;;;1.38;0.40;;;19.70;41.40;;;;;;5069808;28;20048;-70
2020/12/28 06:58:17;;;;;;;0.20;0.13;;;19.70;41.40;;;;;;5066691;28;20033;-70
2020/12/28 07:00:43;;;;;;;0.30;0.30;;;19.70;41.40;;;;;;5070126;28;20476;-70
2020/12/28 07:03:15;;;;;;;0.20;0.20;;;19.70;41.50;;;;;;5073383;28;20492;-70
2020/12/28 07:05:41;;;;;;;0.82;0.20;;;19.80;41.60;;;;;;5074536;28;20036;-69
2020/12/28 07:08:06;;;;;;;3.53;0.38;;;19.80;41.60;;;;;;5075390;28;20391;-69
2020/12/28 07:10:32;;;;;;;0.70;0.30;;;19.80;41.50;;;;;;5075854;28;20112;-69
2020/12/28 07:13:04;;;;;;;0.38;0.30;;;19.80;41.60;;;;;;5074475;28;20061;-69
2020/12/28 07:15:30;;;;;;;4.40;0.52;;;19.80;41.60;;;;;;5057799;28;20061;-69
2020/12/28 07:17:55;;;;;;;0.88;0.25;;;19.80;41.50;;;;;;5075400;28;20035;-69
2020/12/28 07:20:21;;;;;;;0.28;0.20;;;19.70;42.10;;;;;;5075466;28;20032;-69
2020/12/28 07:22:46;;;;;;;2.45;0.50;;;19.80;41.50;;;;;;5064980;28;20025;-69
2020/12/28 07:25:12;;;;;;;2.55;0.32;;;19.80;41.50;;;;;;5072933;28;20570;-69
2020/12/28 07:27:42;;;;;;;2.50;0.30;;;19.80;41.40;;;;;;5074197;28;20028;-69
2020/12/28 07:30:12;;;;;;;0.95;0.20;;;19.80;41.50;;;;;;5073353;28;20020;-69
2020/12/28 07:32:37;;;;;;;1.05;0.10;;;19.80;41.50;;;;;;5064180;28;20039;-69
2020/12/28 07:35:03;;;;;;;0.65;0.17;;;19.80;41.50;;;;;;5073048;28;20044;-69
2020/12/28 07:37:31;;;;;;;3.20;0.50;;;19.90;41.40;;;;;;5071293;28;20591;-69
2020/12/28 07:39:57;;;;;;;0.20;0.20;;;19.80;41.40;;;;;;5069228;28;20096;-69
2020/12/28 07:42:26;;;;;;;1.08;0.20;;;19.80;41.40;;;;;;5075280;28;20020;-69
2020/12/28 07:44:55;;;;;;;0.52;0.28;;;19.90;41.40;;;;;;5073418;28;20048;-69
2020/12/28 07:47:25;;;;;;;2.17;0.20;;;19.80;41.40;;;;;;5070437;28;20055;-69
2020/12/28 07:49:50;;;;;;;0.70;0.28;;;19.80;41.40;;;;;;5070913;28;20020;-70
2020/12/28 07:52:24;;;;;;;2.95;0.30;;;19.80;41.50;;;;;;5056916;28;20034;-69
2020/12/28 07:55:04;;;;;;;0.25;0.10;;;19.90;41.40;;;;;;5073239;28;20111;-69
2020/12/28 07:57:49;;;;;;;0.20;0.20;;;19.90;41.30;;;;;;5066837;28;20017;-69
2020/12/28 08:00:19;;;;;;;1.45;0.32;;;20.00;41.20;;;;;;5072001;28;20104;-69
2020/12/28 08:03:06;;;;;;;0.10;0.10;;;20.00;41.20;;;;;;5071971;28;20464;-69
2020/12/28 08:05:32;;;;;;;0.25;0.20;;;20.00;41.10;;;;;;5074534;28;20082;-69
2020/12/28 08:07:58;;;;;;;2.58;0.28;;;20.00;41.10;;;;;;5066261;28;20028;-69
2020/12/28 08:10:23;;;;;;;0.43;0.22;;;19.90;41.10;;;;;;5070602;28;20031;-68
2020/12/28 08:12:59;;;;;;;0.85;0.43;;;20.00;41.20;;;;;;5069432;28;20711;-69
2020/12/28 08:15:28;;;;;;;0.40;0.38;;;20.00;41.10;;;;;;5073697;28;20140;-69
2020/12/28 08:18:10;;;;;;;0.10;0.10;;;20.00;41.10;;;;;;5070005;28;20075;-69
2020/12/28 08:20:37;;;;;;;0.68;0.30;;;20.00;41.20;;;;;;5067839;28;20408;-69
2020/12/28 08:23:03;;;;;;;1.95;0.40;;;20.00;41.20;;;;;;5064262;28;20519;-69
2020/12/28 08:25:29;;;;;;;0.63;0.10;;;20.00;41.20;;;;;;5101359;28;20024;-69
2020/12/28 08:27:56;;;;;;;0.35;0.10;;;20.00;41.10;;;;;;5072602;28;20052;-69
2020/12/28 08:30:21;;;;;;;2.28;0.20;;;19.90;41.20;;;;;;5072904;28;20039;-69
2020/12/28 08:32:48;;;;;;;2.28;0.28;;;19.90;41.20;;;;;;5069105;28;20104;-69
2020/12/28 08:35:13;;;;;;;0.10;0.10;;;20.00;41.20;;;;;;5070921;28;20032;-69
2020/12/28 08:37:39;;;;;;;0.20;0.20;;;20.00;41.20;;;;;;5071361;28;20460;-69
2020/12/28 08:40:15;;;;;;;0.38;0.15;;;19.90;41.20;;;;;;5055635;28;20016;-69
2020/12/28 08:42:41;;;;;;;0.82;0.20;;;19.90;41.10;;;;;;5071262;28;20068;-69
2020/12/28 08:45:06;;;;;;;0.35;0.10;;;20.00;41.70;;;;;;5067398;28;20060;-69
2020/12/28 08:47:32;;;;;;;0.20;0.20;;;20.00;41.10;;;;;;5071482;28;20035;-69
2020/12/28 08:49:58;;;;;;;0.30;0.20;;;19.90;41.10;;;;;;5055332;28;20040;-69
2020/12/28 08:52:23;;;;;;;0.55;0.30;;;19.90;41.10;;;;;;5073226;28;20069;-69
2020/12/28 08:54:56;;;;;;;0.65;0.40;;;20.00;41.10;;;;;;5072344;28;20076;-69
2020/12/28 08:57:22;;;;;;;1.55;0.30;;;19.90;41.00;;;;;;5072269;28;20348;-69
2020/12/28 08:59:48;;;;;;;0.25;0.25;;;19.90;41.00;;;;;;5073336;28;20021;-69
2020/12/28 09:02:21;;;;;;;0.15;0.15;;;19.90;41.00;;;;;;5061117;28;20025;-69
2020/12/28 09:04:47;;;;;;;1.30;0.30;;;20.00;41.10;;;;;;5055490;28;20024;-69
2020/12/28 09:07:13;;;;;;;0.57;0.28;;;19.90;41.00;;;;;;5073274;28;20537;-69
2020/12/28 09:09:39;;;;;;;0.20;0.20;;;19.90;41.00;;;;;;5084208;28;20028;-72
2020/12/28 09:12:05;;;;;;;0.30;0.20;;;19.90;41.00;;;;;;5062546;28;20031;-72
2020/12/28 09:14:31;;;;;;;1.75;0.30;;;20.00;41.10;;;;;;5052783;28;20563;-72
2020/12/28 09:16:56;;;;;;;0.43;0.20;;;20.00;41.10;;;;;;5072385;28;20031;-73
2020/12/28 09:19:22;;;;;;;0.43;0.30;;;19.90;41.00;;;;;;5071615;28;20060;-69
2020/12/28 09:21:47;;;;;;;0.35;0.20;;;19.90;41.10;;;;;;5063934;28;20032;-73
2020/12/28 09:24:13;;;;;;;0.43;0.40;;;19.90;41.10;;;;;;5084936;28;20049;-72
2020/12/28 09:26:38;;;;;;;1.60;0.40;;;20.00;41.10;;;;;;5062168;28;20510;-73
2020/12/28 09:29:04;;;;;;;0.68;0.50;;;20.00;41.10;;;;;;5072845;28;20457;-74
2020/12/28 09:31:29;;;;;;;0.73;0.20;;;19.90;41.10;;;;;;5068436;28;20475;-70
2020/12/28 09:33:55;;;;;;;2.63;0.30;;;20.00;41.10;;;;;;5067176;28;20458;-70
2020/12/28 09:36:21;;;;;;;0.40;0.20;;;20.00;41.10;;;;;;5072143;28;20035;-69
2020/12/28 09:38:47;;;;;;;0.30;0.30;;;20.00;41.10;;;;;;5073781;28;20074;-69
2020/12/28 09:41:13;;;;;;;0.25;0.20;;;19.90;41.10;;;;;;5076486;28;20016;-69
2020/12/28 09:43:41;;;;;;;2.10;0.22;;;19.90;41.20;;;;;;5072468;28;20021;-69
2020/12/28 09:46:08;;;;;;;1.35;0.40;;;19.90;41.10;;;;;;5071086;28;20046;-72
2020/12/28 09:48:33;;;;;;;0.20;0.20;;;20.00;41.20;;;;;;5062232;28;20444;-70
2020/12/28 09:50:59;;;;;;;0.20;0.20;;;19.90;41.10;;;;;;5065953;28;20040;-68
2020/12/28 09:53:24;;;;;;;0.35;0.30;;;20.00;41.20;;;;;;5063526;28;20032;-69
2020/12/28 09:55:51;;;;;;;0.60;0.25;;;19.90;41.20;;;;;;5079967;28;20028;-70
2020/12/28 09:58:16;;;;;;;0.25;0.20;;;20.00;41.20;;;;;;5071183;28;20161;-70
2020/12/28 10:00:42;;;;;;;0.25;0.25;;;19.90;41.20;;;;;;5072483;28;20067;-69
2020/12/28 10:03:07;;;;;;;0.40;0.30;;;20.00;41.20;;;;;;5072326;28;20029;-69
2020/12/28 10:05:33;;;;;;;1.35;0.28;;;20.00;41.30;;;;;;5050637;28;20033;-70
2020/12/28 10:07:59;;;;;;;0.25;0.13;;;20.00;41.30;;;;;;5068749;28;20028;-69
2020/12/28 10:10:24;;;;;;;0.20;0.05;;;20.00;41.30;;;;;;5071030;28;20031;-70
2020/12/28 10:12:50;;;;;;;0.20;0.20;;;20.00;41.20;;;;;;5072789;28;20039;-70
2020/12/28 10:15:15;;;;;;;2.55;0.38;;;19.90;41.20;;;;;;5071563;28;20457;-70
2020/12/28 10:18:20;;;;;;;0.32;0.22;;;19.90;41.30;;;;;;5055468;28;20048;-68
2020/12/28 10:20:45;;;;;;;1.13;0.30;;;20.00;41.30;;;;;;5052650;28;20563;-68
2020/12/28 10:23:11;;;;;;;0.65;0.20;;;20.00;41.30;;;;;;5063712;28;20056;-69
2020/12/28 10:25:36;;;;;;;0.30;0.30;;;19.90;41.30;;;;;;5071026;28;20045;-69
2020/12/28 10:28:02;;;;;;;0.35;0.17;;;19.90;41.40;;;;;;5071832;28;20111;-70
2020/12/28 10:30:28;;;;;;;0.10;0.10;;;19.90;41.40;;;;;;5071387;28;20039;-69
2020/12/28 10:32:54;;;;;;;0.63;0.22;;;19.90;41.40;;;;;;5072562;28;20507;-69
2020/12/28 10:35:19;;;;;;;2.38;0.30;;;19.90;41.40;;;;;;5070965;28;20103;-69
2020/12/28 10:37:45;;;;;;;0.85;0.35;;;19.90;41.40;;;;;;5057173;28;20029;-69
2020/12/28 10:40:10;;;;;;;0.10;0.10;;;19.90;41.40;;;;;;5055609;28;20083;-70
2020/12/28 10:42:36;;;;;;;0.10;0.10;;;19.90;41.40;;;;;;5088743;28;20070;-69
2020/12/28 10:45:02;;;;;;;0.47;0.28;;;19.90;41.40;;;;;;5055739;28;20413;-70
2020/12/28 10:47:27;;;;;;;0.47;0.20;;;19.90;41.40;;;;;;5055758;28;20032;-73
2020/12/28 10:49:53;;;;;;;0.60;0.28;;;19.90;41.50;;;;;;5053077;28;20033;-73
2020/12/28 10:52:19;;;;;;;0.63;0.20;;;19.90;41.50;;;;;;5055121;28;20025;-73
2020/12/28 10:54:44;;;;;;;0.60;0.20;;;20.00;41.50;;;;;;5055356;28;20033;-73
2020/12/28 10:57:10;;;;;;;0.30;0.30;;;19.90;41.50;;;;;;5057629;28;20083;-72
2020/12/28 10:59:39;;;;;;;0.20;0.13;;;19.90;41.40;;;;;;5053877;28;20033;-73
2020/12/28 11:02:04;;;;;;;1.42;0.90;;;20.00;41.60;;;;;;5054222;28;20460;-74
2020/12/28 11:04:32;;;;;;;2.20;0.82;;;20.00;41.60;;;;;;5051546;28;20036;-72
2020/12/28 11:06:58;;;;;;;0.38;0.30;;;20.00;41.60;;;;;;5055179;28;20036;-72
2020/12/28 11:09:24;;;;;;;0.30;0.30;;;20.00;41.50;;;;;;5053474;28;20511;-70
2020/12/28 11:11:50;;;;;;;1.30;0.40;;;19.90;41.50;;;;;;5052772;28;20485;-70
2020/12/28 11:14:15;;;;;;;0.10;0.10;;;20.00;41.60;;;;;;5038332;28;20025;-73
2020/12/28 11:16:41;;;;;;;1.35;0.50;;;20.00;41.60;;;;;;5049998;28;20484;-73
2020/12/28 11:19:07;;;;;;;0.22;0.20;;;20.00;42.20;;;;;;5048594;28;20116;-73
2020/12/28 11:21:33;;;;;;;0.57;0.35;;;20.00;41.50;;;;;;5086875;28;20133;-73
2020/12/28 11:24:01;;;;;;;1.45;0.20;;;20.00;41.60;;;;;;5051517;28;20032;-73
2020/12/28 11:26:31;;;;;;;1.20;0.10;;;20.10;41.60;;;;;;5049505;28;20030;-69
2020/12/28 11:28:57;;;;;;;0.28;0.20;;;20.10;41.50;;;;;;5055573;28;20174;-69
2020/12/28 11:31:22;;;;;;;0.10;0.10;;;20.10;41.40;;;;;;5053190;28;20108;-69
2020/12/28 11:33:48;;;;;;;0.30;0.20;;;20.10;41.40;;;;;;5054528;28;20029;-69
2020/12/28 11:36:14;;;;;;;1.55;0.40;;;20.20;41.40;;;;;;5053248;28;20045;-72
2020/12/28 11:38:41;;;;;;;3.30;0.70;;;20.20;41.30;;;;;;5068745;28;20079;-69
2020/12/28 11:41:06;;;;;;;1.35;0.60;;;20.20;41.20;;;;;;5054528;28;20077;-69
2020/12/28 11:43:32;;;;;;;1.25;0.70;;;20.20;41.10;;;;;;5055528;28;20017;-68
2020/12/28 11:45:57;;;;;;;1.30;0.47;;;20.20;41.10;;;;;;5040550;28;20034;-68
2020/12/28 11:48:23;;;;;;;1.13;0.73;;;20.20;41.10;;;;;;5047139;28;20021;-69
2020/12/28 11:50:49;;;;;;;2.63;0.30;;;20.20;41.10;;;;;;5048720;28;20025;-69
2020/12/28 11:53:15;;;;;;;0.90;0.57;;;20.30;41.10;;;;;;5059543;28;20044;-68
2020/12/28 11:58:25;;;;;;;1.90;0.50;;;20.30;41.30;;;;;;5052753;28;20028;-69
2020/12/28 12:00:53;;;;;;;5.57;0.90;;;20.30;41.30;;;;;;5053479;28;20157;-69
2020/12/28 12:03:18;;;;;;;1.42;0.43;;;20.30;41.30;;;;;;5054534;28;20032;-69
2020/12/28 12:05:44;;;;;;;0.80;0.40;;;20.30;41.30;;;;;;5053708;28;20136;-72
2020/12/28 12:08:10;;;;;;;3.00;0.60;;;20.20;41.40;;;;;;5053386;28;20056;-72
2020/12/28 12:10:35;;;;;;;4.15;0.45;;;20.30;41.50;;;;;;5055101;28;20397;-71
2020/12/28 12:13:01;;;;;;;0.40;0.40;;;20.30;41.50;;;;;;5054468;28;20068;-71
2020/12/28 12:15:26;;;;;;;2.28;0.40;;;20.20;41.40;;;;;;5053417;28;20530;-71
2020/12/28 12:17:52;;;;;;;2.05;0.45;;;20.30;42.20;;;;;;5053919;28;20079;-71
2020/12/28 12:20:17;;;;;;;0.55;0.55;;;20.30;41.50;;;;;;5052684;28;20075;-68
2020/12/28 12:22:43;;;;;;;0.90;0.40;;;20.30;41.60;;;;;;5053656;28;20021;-71
2020/12/28 12:25:09;;;;;;;2.35;0.43;;;20.30;41.50;;;;;;5052322;28;20032;-72
2020/12/28 12:27:34;;;;;;;3.50;0.47;;;20.30;41.50;;;;;;5053155;28;20017;-72
2020/12/28 12:30:00;;;;;;;0.90;0.30;;;20.30;41.50;;;;;;5042267;28;20036;-71
2020/12/28 12:32:28;;;;;;;2.08;0.30;;;20.30;41.50;;;;;;5053556;28;20048;-71
2020/12/28 12:34:54;;;;;;;0.57;0.40;;;20.30;41.60;;;;;;5053290;28;20427;-72
2020/12/28 12:37:19;;;;;;;0.60;0.60;;;20.30;41.60;;;;;;5053421;28;20017;-72
2020/12/28 12:39:45;;;;;;;0.57;0.43;;;20.30;42.20;;;;;;5051028;28;20047;-72
2020/12/28 12:42:10;;;;;;;0.20;0.20;;;20.30;41.60;;;;;;5052002;28;20025;-72
2020/12/28 12:44:37;;;;;;;1.15;0.30;;;20.30;41.60;;;;;;5047933;28;20033;-72
2020/12/28 12:47:03;;;;;;;0.65;0.38;;;20.30;41.70;;;;;;5053211;28;20055;-72
2020/12/28 12:49:29;;;;;;;2.53;0.30;;;20.30;41.70;;;;;;5051004;28;20068;-72
2020/12/28 12:52:14;;;;;;;0.95;0.52;;;20.30;41.70;;;;;;5052711;28;20127;-72